Norton, KS (67654)

6:58 AM CST on February 24, 2017 (GMT -0600)
MKNRN | | Change Station
Active Advisory: Special Statement

Elev 2381 ft 39.85 °N, 99.89 °W | Updated 8 minutes ago

Overcast
Overcast
25.0 °F
Feels Like 11 °F
N
18.0
Wind Variable Wind from NW

Today
High -- | Low -- °F
--% Chance of Precip.
Yesterday
High -- | Low -- °F
Precip. -- in
Pressure 29.91 in
Visibility 1.5 miles
Clouds Overcast 2400 ft
Windchill 11 °F
Dew Point 19 °F
Humidity 79%
Rainfall 0.02 in
Snow Depth Not available.
7:19 AM 6:26 PM
Waning Crescent, 5% visible
METAR KHLC 241253Z AUTO 33012KT 1 1/2SM -SN BR OVC024 M03/M04 A2985 RMK AO2 SNB29 SLP126 P0000 T10331044 TSNO
Pressure 29.91 in
Visibility 1.5 miles
Clouds Overcast 2400 ft
Windchill 11 °F
Dew Point 19 °F
Humidity 79%
Rainfall 0.02 in
Snow Depth Not available.
7:19 AM 6:26 PM
Waning Crescent, 5% visible
METAR KHLC 241253Z AUTO 33012KT 1 1/2SM -SN BR OVC024 M03/M04 A2985 RMK AO2 SNB29 SLP126 P0000 T10331044 TSNO

Get Your Daily Forecast Email!

Thanks for signing up!

Be on the lookout for a verification email in your inbox.

You'll start receiving the daily forecast at 8 AM.

×

10-Day Weather Forecast

Almanac

Astronomy

Feb. 24, 2017 Rise Set
Actual Time
Civil Twilight
Nautical Twilight
Astronomical Twilight
Moon
Length of Visible Light
Length of Day
Tomorrow will be .
, % of the Moon is Illuminated

Today's Extremes

State Highs State Lows

Community

WunderPhotos

Upload Photos

1,962,540 photos uploaded!

WunderBlog® & News

Nearby

Air Quality

  Air Quality AQ Index Pollutant
Not available.

Snow Depth

Station Depth Elevation

Earthquake Activity

City Distance Mag. Time & Date
Minimum magnitude displayed is 2.5.

Coastal Water Temperatures

Place Temperature

Stations

Nearby Weather Stations

Station Location Temp. Windchill Dew Point Humidity Wind Precip. Elev Updated Type
                   

Watches & Warnings

Special Statement
Issued: 3:48 AM CST Feb. 24, 2017 – National Weather Service

... Light snow across portions of the tri state region this
morning...

Light snow will move south across portions of the tri state
region this morning... possibly resulting in slick Road conditions
with only receiving as little as a few tenths of an inch of
snow... especially north of Interstate 70. Travelers should use
caution on area roadways through 800 am MST/900 am CST.


Jn


248 am MST Fri Feb 24 2017 /348 am CST Fri Feb 24 2017/

... Light snow across portions of the tri state region this
morning...

Light snow will move south across portions of the tri state
region this morning... possibly resulting in slick Road conditions
with only receiving as little as a few tenths of an inch of
snow... especially north of Interstate 70. Travelers should use
caution on area roadways through 800 am MST/900 am CST.


Jn